createdAt,value
2022-08-08T00:00:55.169Z,1.58
2022-08-08T00:03:31.285Z,1.40
2022-08-08T00:06:40.632Z,1.48
2022-08-08T00:09:36.618Z,1.40
2022-08-08T00:13:04.436Z,1.40
2022-08-08T00:16:07.409Z,1.30
2022-08-08T00:19:03.022Z,1.23
2022-08-08T00:21:56.653Z,1.20
2022-08-08T00:24:45.716Z,1.55
2022-08-08T00:27:35.791Z,1.30
2022-08-08T00:30:24.202Z,1.35
2022-08-08T00:33:18.807Z,1.25
2022-08-08T00:36:17.397Z,1.50
2022-08-08T00:41:08.077Z,1.10
2022-08-08T00:42:50.823Z,1.40
2022-08-08T00:45:56.161Z,1.30
2022-08-08T00:49:04.631Z,1.62
2022-08-08T00:52:38.872Z,1.50
2022-08-08T00:55:54.662Z,1.30
2022-08-08T00:59:44.552Z,1.50
2022-08-08T01:03:55.671Z,1.40
2022-08-08T01:09:35.043Z,1.30
2022-08-08T01:12:52.078Z,1.10
2022-08-08T01:16:02.388Z,1.37
2022-08-08T01:19:02.685Z,1.20
2022-08-08T01:22:13.443Z,1.52
2022-08-08T01:25:42.980Z,1.55
2022-08-08T01:28:51.519Z,1.45
2022-08-08T01:32:06.763Z,1.25
2022-08-08T01:35:11.813Z,1.30
2022-08-08T01:38:47.827Z,1.35
2022-08-08T01:41:50.423Z,1.42
2022-08-08T01:44:59.000Z,1.35
2022-08-08T01:48:23.525Z,1.60
2022-08-08T01:51:31.398Z,1.50
2022-08-08T01:55:25.814Z,1.60
2022-08-08T01:58:39.803Z,1.60
2022-08-08T02:02:00.361Z,1.67
2022-08-08T02:05:23.205Z,1.40
2022-08-08T02:08:22.374Z,1.50
2022-08-08T02:11:59.187Z,1.35
2022-08-08T02:14:59.380Z,1.80
2022-08-08T02:17:54.227Z,1.25
2022-08-08T02:21:21.885Z,1.35
2022-08-08T02:24:19.789Z,1.20
2022-08-08T02:27:19.114Z,1.92
2022-08-08T02:30:20.622Z,1.75
2022-08-08T02:34:00.170Z,1.30
2022-08-08T02:36:50.826Z,1.40
2022-08-08T02:39:59.856Z,1.30
2022-08-08T02:44:42.796Z,1.40
2022-08-08T02:46:27.789Z,1.33
2022-08-08T02:49:51.091Z,1.50
2022-08-08T02:53:00.103Z,1.10
2022-08-08T02:56:18.621Z,1.30
2022-08-08T02:59:57.630Z,1.55
2022-08-08T03:03:46.148Z,1.33
2022-08-08T03:06:52.003Z,1.45
2022-08-08T03:09:51.013Z,1.50
2022-08-08T03:13:33.969Z,1.20
2022-08-08T03:16:35.224Z,1.30
2022-08-08T03:19:50.827Z,1.37
2022-08-08T03:22:48.095Z,1.23
2022-08-08T03:25:42.517Z,1.45
2022-08-08T03:28:37.570Z,1.40
2022-08-08T03:32:06.111Z,1.67
2022-08-08T03:34:49.754Z,1.30
2022-08-08T03:38:54.322Z,1.55
2022-08-08T03:40:54.642Z,1.40
2022-08-08T03:43:41.591Z,1.50
2022-08-08T03:46:32.533Z,1.23
2022-08-08T03:50:00.464Z,1.30
2022-08-08T03:52:31.720Z,1.10
2022-08-08T03:55:57.641Z,1.55
2022-08-08T03:58:34.998Z,1.55
2022-08-08T04:02:13.283Z,1.30
2022-08-08T04:04:45.402Z,1.50
2022-08-08T04:07:40.134Z,1.50
2022-08-08T04:10:32.231Z,1.30
2022-08-08T04:13:23.342Z,1.45
2022-08-08T04:16:09.875Z,1.52
2022-08-08T04:18:59.164Z,1.60
2022-08-08T04:21:46.717Z,1.45
2022-08-08T04:24:35.650Z,1.30
2022-08-08T04:28:02.759Z,1.30
2022-08-08T04:30:29.221Z,1.45
2022-08-08T04:33:23.848Z,1.83
2022-08-08T04:36:13.585Z,1.60
2022-08-08T04:39:21.333Z,1.55
2022-08-08T04:42:07.606Z,1.65
2022-08-08T04:44:58.463Z,1.92
2022-08-08T04:47:47.127Z,1.58
2022-08-08T04:50:38.325Z,1.70
2022-08-08T04:54:36.503Z,1.83
2022-08-08T04:56:32.546Z,2.00
2022-08-08T04:59:26.981Z,1.80
2022-08-08T05:02:31.193Z,2.00
2022-08-08T05:05:44.327Z,1.77
2022-08-08T05:08:26.970Z,2.35
2022-08-08T05:11:24.635Z,2.30
2022-08-08T05:14:14.927Z,2.33
2022-08-08T05:17:08.655Z,2.22
2022-08-08T05:20:11.096Z,2.22
2022-08-08T05:23:00.890Z,2.50
2022-08-08T05:25:49.596Z,3.37
2022-08-08T05:28:56.796Z,2.92
2022-08-08T05:32:03.972Z,2.60
2022-08-08T05:34:50.319Z,2.85
2022-08-08T05:37:53.491Z,3.65
2022-08-08T05:40:53.270Z,3.40
2022-08-08T05:44:03.998Z,3.75
2022-08-08T05:46:52.960Z,3.58
2022-08-08T05:49:41.482Z,4.03
2022-08-08T05:52:43.938Z,3.22
2022-08-08T05:56:10.228Z,3.55
2022-08-08T05:58:57.982Z,3.50
2022-08-08T06:01:57.996Z,3.37
2022-08-08T06:07:43.743Z,3.35
2022-08-08T06:10:34.814Z,3.50
2022-08-08T06:13:35.449Z,3.78
2022-08-08T06:16:27.397Z,3.30
2022-08-08T06:19:18.957Z,2.97
2022-08-08T06:25:18.346Z,2.78
2022-08-08T06:28:29.243Z,2.87
2022-08-08T06:31:19.625Z,2.80
2022-08-08T06:34:27.298Z,2.92
2022-08-08T06:37:24.995Z,2.85
2022-08-08T06:40:16.935Z,3.42
2022-08-08T06:43:10.634Z,3.05
2022-08-08T06:45:59.304Z,2.53
2022-08-08T06:48:46.217Z,2.85
2022-08-08T06:51:52.706Z,3.53
2022-08-08T06:54:42.586Z,2.50
2022-08-08T06:57:44.037Z,2.75
2022-08-08T07:00:40.866Z,2.97
2022-08-08T07:04:36.857Z,4.15
2022-08-08T07:07:10.410Z,3.08
2022-08-08T07:10:08.103Z,2.85
2022-08-08T07:13:00.013Z,2.10
2022-08-08T07:16:04.809Z,2.37
2022-08-08T07:19:14.980Z,2.40
2022-08-08T07:22:11.654Z,2.62
2022-08-08T07:25:01.784Z,2.30
2022-08-08T07:28:02.320Z,2.62
2022-08-08T07:30:55.677Z,2.10
2022-08-08T07:33:58.962Z,2.67
2022-08-08T07:36:50.586Z,2.15
2022-08-08T07:39:56.095Z,2.10
2022-08-08T07:42:47.319Z,2.28
2022-08-08T07:46:05.016Z,2.10
2022-08-08T07:48:42.064Z,1.98
2022-08-08T07:51:44.759Z,2.00
2022-08-08T07:55:04.384Z,2.33
2022-08-08T07:58:00.489Z,1.75
2022-08-08T08:00:53.166Z,1.77
2022-08-08T08:04:04.358Z,1.67
2022-08-08T08:06:53.054Z,1.85
2022-08-08T08:09:41.787Z,2.08
2022-08-08T08:12:35.529Z,1.90
2022-08-08T08:15:32.029Z,2.00
2022-08-08T08:18:32.283Z,2.08
2022-08-08T08:21:20.739Z,2.25
2022-08-08T08:24:32.285Z,1.73
2022-08-08T08:27:20.098Z,1.50
2022-08-08T08:30:07.340Z,1.77
2022-08-08T08:32:54.716Z,1.62
2022-08-08T08:36:19.240Z,1.60
2022-08-08T08:38:50.214Z,1.90
2022-08-08T08:41:37.331Z,2.45
2022-08-08T08:44:25.396Z,2.17
2022-08-08T08:47:18.814Z,2.10
2022-08-08T08:50:10.717Z,2.35
2022-08-08T08:53:27.266Z,2.08
2022-08-08T08:56:25.097Z,2.08
2022-08-08T08:59:17.205Z,2.22
2022-08-08T09:02:17.200Z,2.17
2022-08-08T09:05:06.102Z,2.15
2022-08-08T09:08:13.102Z,2.10
2022-08-08T09:11:03.471Z,2.50
2022-08-08T09:13:51.348Z,2.05
2022-08-08T09:16:40.960Z,2.90
2022-08-08T09:22:01.168Z,2.83
2022-08-08T09:22:39.524Z,2.42
2022-08-08T09:25:36.200Z,3.03
2022-08-08T09:28:38.784Z,2.87
2022-08-08T09:32:00.979Z,2.60
2022-08-08T09:34:50.960Z,2.78
2022-08-08T09:38:01.090Z,2.72
2022-08-08T09:40:52.560Z,2.60
2022-08-08T09:44:05.671Z,3.28
2022-08-08T09:46:57.212Z,2.60
2022-08-08T09:49:51.427Z,3.10
2022-08-08T09:52:56.595Z,2.60
2022-08-08T09:56:04.548Z,2.72
2022-08-08T09:59:20.130Z,2.72
2022-08-08T10:02:23.409Z,3.50
2022-08-08T10:05:22.845Z,2.40
2022-08-08T10:08:11.500Z,2.78
2022-08-08T10:10:58.702Z,2.95
2022-08-08T10:14:02.124Z,3.08
2022-08-08T10:16:54.884Z,3.00
2022-08-08T10:19:57.171Z,3.37
2022-08-08T10:23:00.086Z,3.08
2022-08-08T10:25:56.141Z,2.75
2022-08-08T10:29:05.388Z,3.35
2022-08-08T10:32:15.793Z,3.00
2022-08-08T10:35:11.749Z,3.10
2022-08-08T10:38:08.525Z,2.60
2022-08-08T10:40:55.760Z,2.58
2022-08-08T10:43:50.546Z,2.62
2022-08-08T10:46:37.103Z,3.85
2022-08-08T10:50:00.754Z,3.12
2022-08-08T10:52:37.278Z,3.37
2022-08-08T10:55:40.984Z,3.58
2022-08-08T10:58:29.653Z,3.78
2022-08-08T11:01:16.108Z,3.22
2022-08-08T11:04:08.225Z,3.87
2022-08-08T11:07:00.730Z,3.72
2022-08-08T11:09:47.263Z,3.33
2022-08-08T11:12:38.401Z,3.60
2022-08-08T11:15:30.596Z,3.92
2022-08-08T11:18:18.413Z,3.58
2022-08-08T11:21:08.886Z,3.50
2022-08-08T11:24:01.889Z,3.25
2022-08-08T11:26:56.339Z,3.33
2022-08-08T11:29:58.209Z,3.80
2022-08-08T11:32:53.811Z,3.28
2022-08-08T11:35:42.548Z,3.00
2022-08-08T11:38:37.127Z,3.50
2022-08-08T11:41:32.306Z,4.65
2022-08-08T11:44:28.987Z,4.85
2022-08-08T11:47:17.322Z,4.78
2022-08-08T11:50:13.013Z,4.60
2022-08-08T11:52:59.807Z,4.80
2022-08-08T11:55:50.829Z,4.65
2022-08-08T11:58:37.778Z,5.15
2022-08-08T12:01:35.402Z,4.90
2022-08-08T12:04:22.477Z,5.03
2022-08-08T12:07:14.409Z,4.15
2022-08-08T12:10:12.000Z,4.28
2022-08-08T12:13:05.051Z,3.55
2022-08-08T12:15:51.451Z,3.83
2022-08-08T12:18:44.445Z,3.97
2022-08-08T12:22:00.707Z,3.97
2022-08-08T12:24:51.139Z,4.20
2022-08-08T12:27:45.534Z,3.42
2022-08-08T12:30:33.856Z,3.60
2022-08-08T12:33:37.770Z,3.45
2022-08-08T12:36:46.398Z,3.30
2022-08-08T12:40:00.410Z,3.22
2022-08-08T12:42:47.382Z,3.55
2022-08-08T12:45:59.275Z,3.62
2022-08-08T12:49:20.766Z,3.22
2022-08-08T12:52:04.151Z,3.80
2022-08-08T12:55:13.615Z,3.50
2022-08-08T12:58:09.583Z,4.18
2022-08-08T13:01:10.965Z,3.65
2022-08-08T13:03:58.133Z,3.85
2022-08-08T13:06:53.752Z,3.22
2022-08-08T13:10:04.213Z,3.30
2022-08-08T13:15:38.933Z,3.28
2022-08-08T13:18:27.596Z,3.10
2022-08-08T13:21:16.296Z,3.30
2022-08-08T13:24:07.500Z,2.80
2022-08-08T13:27:01.454Z,3.10
2022-08-08T13:30:02.599Z,3.50
2022-08-08T13:32:55.221Z,3.28
2022-08-08T13:35:43.934Z,3.00
2022-08-08T13:38:38.088Z,3.30
2022-08-08T13:41:26.195Z,2.70
2022-08-08T13:44:27.955Z,2.97
2022-08-08T13:47:20.184Z,2.70
2022-08-08T13:50:36.754Z,3.08
2022-08-08T13:53:31.446Z,3.10
2022-08-08T13:56:44.895Z,2.50
2022-08-08T13:59:48.769Z,3.20
2022-08-08T14:02:35.948Z,3.42
2022-08-08T14:05:36.057Z,2.60
2022-08-08T14:08:46.096Z,2.50
2022-08-08T14:11:34.064Z,2.22
2022-08-08T14:14:26.296Z,2.67
2022-08-08T14:20:57.901Z,2.47
2022-08-08T14:24:04.421Z,2.40
2022-08-08T14:26:33.344Z,2.92
2022-08-08T14:29:27.029Z,3.08
2022-08-08T14:32:27.654Z,4.20
2022-08-08T14:35:19.223Z,3.70
2022-08-08T14:38:33.469Z,3.42
2022-08-08T14:41:45.498Z,4.82
2022-08-08T14:44:33.638Z,4.20
2022-08-08T14:47:22.100Z,3.83
2022-08-08T14:50:15.050Z,5.25
2022-08-08T14:53:14.095Z,4.30
2022-08-08T14:56:01.891Z,4.37
2022-08-08T14:58:50.839Z,3.95
2022-08-08T15:01:41.196Z,4.07
2022-08-08T15:04:28.001Z,3.93
2022-08-08T15:07:24.233Z,3.65
2022-08-08T15:10:22.844Z,3.97
2022-08-08T15:13:15.305Z,3.80
2022-08-08T15:16:03.713Z,3.62
2022-08-08T15:18:51.798Z,3.67
2022-08-08T15:21:43.052Z,3.42
2022-08-08T15:24:31.766Z,3.53
2022-08-08T15:28:04.377Z,3.65
2022-08-08T15:30:24.428Z,4.07
2022-08-08T15:33:20.835Z,3.60
2022-08-08T15:36:19.192Z,4.30
2022-08-08T15:39:14.808Z,3.50
2022-08-08T15:42:01.433Z,3.60
2022-08-08T15:44:48.009Z,4.35
2022-08-08T15:47:34.246Z,4.18
2022-08-08T15:50:21.051Z,3.83
2022-08-08T15:53:08.803Z,4.35
2022-08-08T15:55:57.383Z,4.03
2022-08-08T15:58:48.275Z,4.00
2022-08-08T16:01:40.468Z,3.78
2022-08-08T16:04:42.453Z,3.03
2022-08-08T16:07:39.176Z,3.10
2022-08-08T16:13:02.572Z,3.05
2022-08-08T16:13:43.570Z,2.50
2022-08-08T16:16:31.758Z,2.60
2022-08-08T16:19:23.334Z,2.83
2022-08-08T16:22:10.186Z,2.35
2022-08-08T16:25:16.589Z,2.30
2022-08-08T16:28:03.142Z,2.70
2022-08-08T16:30:49.760Z,2.90
2022-08-08T16:33:39.300Z,2.30
2022-08-08T16:36:33.226Z,2.50
2022-08-08T16:39:59.478Z,2.10
2022-08-08T16:42:27.366Z,2.08
2022-08-08T16:46:38.673Z,2.65
2022-08-08T16:48:20.243Z,2.25
2022-08-08T16:51:09.573Z,2.70
2022-08-08T16:55:22.957Z,2.40
2022-08-08T16:57:04.051Z,2.35
2022-08-08T17:00:10.395Z,2.53
2022-08-08T17:02:56.577Z,2.40
2022-08-08T17:05:45.024Z,2.37
2022-08-08T17:08:32.249Z,2.50
2022-08-08T17:11:19.013Z,2.60
2022-08-08T17:14:06.091Z,2.92
2022-08-08T17:17:06.479Z,2.50
2022-08-08T17:20:14.060Z,2.90
2022-08-08T17:23:25.868Z,3.50
2022-08-08T17:26:11.520Z,3.15
2022-08-08T17:29:04.071Z,3.45
2022-08-08T17:31:53.355Z,4.05
2022-08-08T17:35:27.569Z,3.95
2022-08-08T17:37:51.929Z,3.85
2022-08-08T17:40:39.794Z,4.78
2022-08-08T17:43:26.970Z,4.50
2022-08-08T17:46:39.189Z,4.62
2022-08-08T17:49:28.597Z,4.57
2022-08-08T17:52:25.204Z,4.95
2022-08-08T17:56:04.130Z,4.40
2022-08-08T17:58:18.662Z,4.68
2022-08-08T18:01:10.265Z,4.35
2022-08-08T18:03:57.964Z,4.55
2022-08-08T18:06:44.537Z,4.95
2022-08-08T18:09:38.064Z,5.18
2022-08-08T18:12:24.918Z,5.00
2022-08-08T18:15:12.242Z,5.45
2022-08-08T18:18:09.677Z,5.70
2022-08-08T18:21:10.737Z,5.47
2022-08-08T18:24:18.899Z,5.03
2022-08-08T18:27:17.589Z,3.80
2022-08-08T18:30:04.819Z,4.18
2022-08-08T18:32:51.227Z,3.95
2022-08-08T18:35:48.397Z,4.10
2022-08-08T18:38:35.094Z,3.70
2022-08-08T18:41:51.654Z,3.78
2022-08-08T18:44:29.115Z,3.47
2022-08-08T18:47:19.675Z,3.62
2022-08-08T18:50:06.383Z,3.80
2022-08-08T18:52:52.852Z,4.28
2022-08-08T18:55:40.949Z,3.75
2022-08-08T18:58:30.389Z,4.18
2022-08-08T19:02:27.143Z,3.60
2022-08-08T19:04:26.041Z,4.00
2022-08-08T19:07:16.441Z,3.58
2022-08-08T19:10:15.928Z,3.40
2022-08-08T19:13:03.792Z,4.00
2022-08-08T19:15:57.128Z,4.10
2022-08-08T19:18:51.825Z,4.87
2022-08-08T19:21:50.086Z,4.12
2022-08-08T19:24:49.269Z,5.22
2022-08-08T19:27:55.837Z,4.35
2022-08-08T19:31:03.605Z,4.60
2022-08-08T19:34:04.549Z,4.55
2022-08-08T19:36:59.113Z,5.55
2022-08-08T19:39:46.180Z,6.00
2022-08-08T19:42:37.442Z,5.62
2022-08-08T19:45:58.976Z,5.10
2022-08-08T19:48:31.709Z,5.68
2022-08-08T19:51:25.094Z,5.93
2022-08-08T19:54:21.321Z,6.65
2022-08-08T19:57:09.001Z,5.75
2022-08-08T19:59:56.086Z,6.03
2022-08-08T20:02:42.338Z,6.07
2022-08-08T20:06:13.735Z,6.53
2022-08-08T20:08:36.394Z,6.30
2022-08-08T20:11:23.735Z,5.85
2022-08-08T20:14:31.727Z,6.12
2022-08-08T20:17:26.889Z,5.85
2022-08-08T20:20:19.640Z,6.07
2022-08-08T20:23:12.234Z,6.55
2022-08-08T20:26:02.499Z,4.72
2022-08-08T20:28:50.970Z,4.72
2022-08-08T20:32:07.336Z,4.62
2022-08-08T20:34:47.444Z,4.25
2022-08-08T20:37:46.844Z,4.22
2022-08-08T20:40:41.812Z,4.47
2022-08-08T20:43:44.007Z,2.90
2022-08-08T20:46:35.482Z,3.15
2022-08-08T20:49:24.073Z,3.08
2022-08-08T20:52:27.817Z,2.83
2022-08-08T20:55:16.496Z,2.80
2022-08-08T20:58:13.846Z,2.67
2022-08-08T21:01:20.047Z,2.20
2022-08-08T21:04:07.154Z,2.70
2022-08-08T21:06:57.081Z,2.87
2022-08-08T21:10:02.148Z,2.42
2022-08-08T21:12:54.092Z,2.60
2022-08-08T21:16:06.200Z,2.60
2022-08-08T21:18:47.115Z,2.40
2022-08-08T21:21:39.461Z,2.25
2022-08-08T21:24:30.256Z,1.83
2022-08-08T21:27:38.589Z,2.58
2022-08-08T21:30:24.546Z,2.30
2022-08-08T21:33:11.779Z,1.87
2022-08-08T21:36:18.624Z,2.15
2022-08-08T21:39:04.478Z,2.05
2022-08-08T21:41:59.185Z,2.12
2022-08-08T21:44:58.814Z,2.28
2022-08-08T21:48:07.511Z,2.60
2022-08-08T21:50:53.655Z,2.33
2022-08-08T21:54:33.577Z,2.30
2022-08-08T21:56:46.755Z,2.40
2022-08-08T22:00:01.439Z,2.60
2022-08-08T22:02:44.196Z,2.92
2022-08-08T22:05:31.066Z,2.85
2022-08-08T22:08:24.676Z,3.55
2022-08-08T22:11:51.093Z,2.95
2022-08-08T22:14:17.283Z,3.03
2022-08-08T22:17:04.253Z,3.22
2022-08-08T22:20:10.642Z,2.75
2022-08-08T22:22:58.276Z,3.22
2022-08-08T22:26:28.114Z,3.30
2022-08-08T22:29:04.259Z,2.83
2022-08-08T22:32:01.526Z,2.62
2022-08-08T22:34:51.042Z,2.80
2022-08-08T22:37:53.833Z,2.80
2022-08-08T22:40:41.318Z,2.92
2022-08-08T22:43:27.399Z,2.87
2022-08-08T22:46:18.722Z,3.17
2022-08-08T22:49:05.969Z,2.60
2022-08-08T22:51:53.998Z,3.05
2022-08-08T22:54:55.869Z,2.75
2022-08-08T22:57:49.494Z,2.62
2022-08-08T23:00:36.524Z,2.70
2022-08-08T23:03:26.046Z,2.67
2022-08-08T23:06:31.977Z,2.78
2022-08-08T23:09:19.403Z,2.62
2022-08-08T23:12:27.632Z,2.85
2022-08-08T23:16:39.672Z,2.80
2022-08-08T23:18:29.667Z,2.50
2022-08-08T23:21:17.241Z,2.60
2022-08-08T23:24:07.129Z,2.47
2022-08-08T23:26:56.101Z,2.10
2022-08-08T23:29:42.759Z,2.80
2022-08-08T23:32:44.185Z,3.40
2022-08-08T23:35:34.352Z,3.50
2022-08-08T23:38:44.227Z,5.32
2022-08-08T23:41:30.931Z,4.07
2022-08-08T23:44:32.433Z,3.75
2022-08-08T23:49:04.475Z,3.45
2022-08-08T23:50:30.179Z,4.37
2022-08-08T23:53:17.237Z,3.33
2022-08-08T23:56:32.345Z,3.60
2022-08-08T23:59:20.390Z,3.55
